Time;durP1;ratioP1;P1;durP2;ratioP2;P2;SDS_P1;SDS_P2;PMS_P1;PMS_P2;Temp;Humidity;BMP_temperature;BMP_pressure;BME280_temperature;BME280_humidity;BME280_pressure;Samples;Min_cycle;Max_cycle;Signal;HPM_P1;HPM_P2
2023/03/23 00:01:26;;;;;;;5.78;1.90;;;;;;;;;;4915132;28;20552;-69
2023/03/23 00:03:57;;;;;;;7.80;1.67;;;;;;;;;;4918935;28;20353;-68
2023/03/23 00:06:25;;;;;;;7.47;1.80;;;;;;;;;;4937250;28;20050;-69
2023/03/23 00:08:59;;;;;;;6.38;2.00;;;;;;;;;;4930512;28;20073;-68
2023/03/23 00:11:30;;;;;;;6.88;2.00;;;;;;;;;;4902384;28;20672;-68
2023/03/23 00:14:00;;;;;;;6.25;1.70;;;;;;;;;;4936901;28;20045;-68
2023/03/23 00:16:30;;;;;;;6.13;1.80;;;;;;;;;;4934358;28;20094;-68
2023/03/23 00:18:59;;;;;;;5.65;1.60;;;;;;;;;;4917737;28;20372;-68
2023/03/23 00:21:34;;;;;;;4.55;1.48;;;;;;;;;;4931814;28;20559;-68
2023/03/23 00:24:06;;;;;;;7.75;2.55;;;;;;;;;;4919850;28;20592;-68
2023/03/23 00:26:36;;;;;;;5.07;1.65;;;;;;;;;;4934853;28;20405;-68
2023/03/23 00:29:04;;;;;;;5.30;1.48;;;;;;;;;;4917775;28;20141;-68
2023/03/23 00:31:32;;;;;;;7.32;1.80;;;;;;;;;;4918172;28;20034;-68
2023/03/23 00:34:03;;;;;;;5.20;1.23;;;;;;;;;;4936931;28;20049;-68
2023/03/23 00:36:33;;;;;;;7.35;1.75;;;;;;;;;;4904686;28;20043;-68
2023/03/23 00:39:01;;;;;;;9.57;3.85;;;;;;;;;;4919207;28;20512;-68
2023/03/23 00:41:28;;;;;;;11.93;5.95;;;;;;;;;;4936719;28;20027;-68
2023/03/23 00:44:01;;;;;;;10.15;4.07;;;;;;;;;;4920026;28;20737;-69
2023/03/23 00:46:28;;;;;;;5.97;1.90;;;;;;;;;;4921164;28;20046;-68
2023/03/23 00:48:56;;;;;;;4.70;1.30;;;;;;;;;;4912495;28;20117;-68
2023/03/23 00:51:25;;;;;;;7.13;1.45;;;;;;;;;;4938597;28;20037;-69
2023/03/23 00:53:53;;;;;;;5.38;1.48;;;;;;;;;;4938464;28;20068;-68
2023/03/23 00:56:23;;;;;;;5.07;1.38;;;;;;;;;;4938100;28;20055;-67
2023/03/23 00:58:51;;;;;;;6.57;1.60;;;;;;;;;;4933120;28;20063;-68
2023/03/23 01:01:18;;;;;;;5.57;1.60;;;;;;;;;;4919581;28;20073;-68
2023/03/23 01:03:46;;;;;;;5.18;1.38;;;;;;;;;;4934468;28;20397;-68
2023/03/23 01:06:14;;;;;;;5.30;1.33;;;;;;;;;;4942043;28;20252;-68
2023/03/23 01:08:46;;;;;;;6.53;1.67;;;;;;;;;;4931927;28;20026;-67
2023/03/23 01:11:16;;;;;;;7.53;2.30;;;;;;;;;;4934119;28;20067;-68
2023/03/23 01:13:43;;;;;;;6.47;1.60;;;;;;;;;;4918559;28;20077;-67
2023/03/23 01:16:12;;;;;;;6.13;1.55;;;;;;;;;;4937558;28;20027;-68
2023/03/23 01:18:41;;;;;;;6.90;1.70;;;;;;;;;;4930941;28;20046;-68
2023/03/23 01:21:13;;;;;;;4.13;1.30;;;;;;;;;;4937673;28;20126;-67
2023/03/23 01:23:41;;;;;;;8.05;1.30;;;;;;;;;;4903175;28;20121;-68
2023/03/23 01:26:09;;;;;;;5.47;1.10;;;;;;;;;;4929913;28;20557;-68
2023/03/23 01:28:37;;;;;;;5.75;1.20;;;;;;;;;;4932246;28;20034;-68
2023/03/23 01:31:06;;;;;;;4.95;1.23;;;;;;;;;;4935226;28;20501;-67
2023/03/23 01:33:33;;;;;;;6.43;1.30;;;;;;;;;;4932471;28;20449;-67
2023/03/23 01:36:03;;;;;;;6.40;1.70;;;;;;;;;;4934907;28;20451;-68
2023/03/23 01:38:32;;;;;;;4.63;1.13;;;;;;;;;;4918997;28;20035;-68
2023/03/23 01:41:00;;;;;;;5.57;1.10;;;;;;;;;;4923287;28;20066;-68
2023/03/23 01:43:27;;;;;;;4.50;1.13;;;;;;;;;;4935984;28;20031;-67
2023/03/23 01:45:55;;;;;;;8.15;1.52;;;;;;;;;;4931192;28;20031;-68
2023/03/23 01:48:27;;;;;;;5.28;1.33;;;;;;;;;;4939975;28;20034;-67
2023/03/23 01:51:14;;;;;;;6.43;1.67;;;;;;;;;;4911945;28;20294;-68
2023/03/23 01:53:50;;;;;;;5.80;1.73;;;;;;;;;;4933714;28;20150;-68
2023/03/23 01:56:26;;;;;;;7.53;2.10;;;;;;;;;;4917021;28;20042;-68
2023/03/23 01:58:55;;;;;;;6.45;2.20;;;;;;;;;;4935467;28;20092;-69
2023/03/23 02:01:21;;;;;;;5.32;1.70;;;;;;;;;;4935949;28;20520;-67
2023/03/23 02:03:48;;;;;;;5.38;1.65;;;;;;;;;;4917707;28;20456;-68
2023/03/23 02:06:17;;;;;;;6.30;1.80;;;;;;;;;;4937418;28;20758;-67
2023/03/23 02:08:44;;;;;;;7.95;1.55;;;;;;;;;;4917578;28;20030;-68
2023/03/23 02:11:16;;;;;;;5.25;1.50;;;;;;;;;;4930909;28;20034;-68
2023/03/23 02:13:44;;;;;;;5.43;1.50;;;;;;;;;;4920158;28;20650;-68
2023/03/23 02:16:29;;;;;;;3.60;1.33;;;;;;;;;;4933707;28;20398;-68
2023/03/23 02:19:08;;;;;;;6.65;1.60;;;;;;;;;;4935351;28;20142;-68
2023/03/23 02:21:53;;;;;;;5.75;1.85;;;;;;;;;;4912142;28;20030;-69
2023/03/23 02:24:29;;;;;;;5.88;1.50;;;;;;;;;;4933638;28;20114;-68
2023/03/23 02:27:03;;;;;;;5.97;1.40;;;;;;;;;;4910381;28;20065;-68
2023/03/23 02:29:48;;;;;;;5.10;1.38;;;;;;;;;;4909628;28;20034;-68
2023/03/23 02:32:35;;;;;;;5.40;1.70;;;;;;;;;;4935344;28;20122;-69
2023/03/23 02:35:07;;;;;;;5.72;1.33;;;;;;;;;;4938889;28;20434;-68
2023/03/23 02:37:51;;;;;;;4.47;1.52;;;;;;;;;;4928691;28;20027;-69
2023/03/23 02:40:25;;;;;;;6.60;1.80;;;;;;;;;;4934399;28;20485;-69
2023/03/23 02:42:54;;;;;;;4.68;1.33;;;;;;;;;;4913024;28;20047;-69
2023/03/23 02:45:23;;;;;;;5.45;1.58;;;;;;;;;;4937811;28;20042;-68
2023/03/23 02:47:52;;;;;;;5.30;1.40;;;;;;;;;;4915638;28;20047;-68
2023/03/23 02:50:21;;;;;;;3.33;1.10;;;;;;;;;;4933757;28;20050;-69
2023/03/23 02:52:49;;;;;;;5.50;1.60;;;;;;;;;;4919617;28;20406;-68
2023/03/23 02:55:18;;;;;;;6.57;1.40;;;;;;;;;;4934700;28;20051;-68
2023/03/23 02:57:45;;;;;;;5.30;1.48;;;;;;;;;;4901026;28;20420;-69
2023/03/23 03:00:15;;;;;;;7.35;2.15;;;;;;;;;;4935106;28;20100;-69
2023/03/23 03:02:52;;;;;;;3.95;1.20;;;;;;;;;;4932224;28;20287;-69
2023/03/23 03:05:37;;;;;;;7.45;1.58;;;;;;;;;;4937261;28;20484;-69
2023/03/23 03:08:39;;;;;;;3.10;1.27;;;;;;;;;;4936791;28;21627;-68
2023/03/23 03:11:15;;;;;;;5.93;1.70;;;;;;;;;;4894124;28;20047;-70
2023/03/23 03:14:00;;;;;;;5.65;1.70;;;;;;;;;;4919675;28;20148;-70
2023/03/23 03:16:30;;;;;;;5.90;1.75;;;;;;;;;;4912888;28;20043;-70
2023/03/23 03:19:09;;;;;;;5.00;1.70;;;;;;;;;;4918729;28;20039;-69
2023/03/23 03:21:38;;;;;;;6.43;1.80;;;;;;;;;;4927146;28;20070;-67
2023/03/23 03:24:11;;;;;;;6.20;2.00;;;;;;;;;;4921285;28;20521;-68
2023/03/23 03:26:38;;;;;;;6.78;2.20;;;;;;;;;;4917353;28;20561;-68
2023/03/23 03:29:05;;;;;;;6.53;1.88;;;;;;;;;;4919047;28;21285;-68
2023/03/23 03:31:37;;;;;;;3.75;1.20;;;;;;;;;;4931396;28;20034;-70
2023/03/23 03:34:05;;;;;;;4.25;1.08;;;;;;;;;;4916041;28;20191;-69
2023/03/23 03:36:35;;;;;;;6.50;1.48;;;;;;;;;;4931571;28;20713;-69
2023/03/23 03:39:07;;;;;;;4.90;1.58;;;;;;;;;;4913607;28;20518;-69
2023/03/23 03:41:35;;;;;;;4.95;1.30;;;;;;;;;;4930198;28;20190;-69
2023/03/23 03:44:02;;;;;;;6.88;1.38;;;;;;;;;;4931441;28;20137;-69
2023/03/23 03:46:31;;;;;;;6.10;1.63;;;;;;;;;;4911422;28;20066;-69
2023/03/23 03:49:00;;;;;;;4.40;1.33;;;;;;;;;;4934877;28;20063;-69
2023/03/23 03:51:29;;;;;;;6.63;1.40;;;;;;;;;;4931717;28;20031;-69
2023/03/23 03:53:56;;;;;;;4.78;1.30;;;;;;;;;;4916271;28;20039;-69
2023/03/23 03:56:23;;;;;;;4.68;1.50;;;;;;;;;;4933642;28;21030;-69
2023/03/23 03:58:51;;;;;;;5.65;1.40;;;;;;;;;;4928039;28;20054;-69
2023/03/23 04:01:18;;;;;;;4.88;1.20;;;;;;;;;;4935985;28;20022;-69
2023/03/23 04:03:50;;;;;;;3.78;1.15;;;;;;;;;;4917939;28;20038;-70
2023/03/23 04:06:18;;;;;;;5.07;1.25;;;;;;;;;;4941383;28;20039;-70
2023/03/23 04:08:46;;;;;;;4.47;1.40;;;;;;;;;;4934353;28;20450;-70
2023/03/23 04:11:16;;;;;;;4.65;1.20;;;;;;;;;;4925241;28;20651;-68
2023/03/23 04:13:43;;;;;;;5.05;1.42;;;;;;;;;;4902866;28;20124;-68
2023/03/23 04:16:09;;;;;;;3.28;1.13;;;;;;;;;;4922718;28;20043;-68
2023/03/23 04:18:38;;;;;;;4.13;1.02;;;;;;;;;;4935560;28;20051;-69
2023/03/23 04:21:07;;;;;;;3.20;1.00;;;;;;;;;;4940051;28;20033;-69
2023/03/23 04:23:35;;;;;;;3.38;0.90;;;;;;;;;;4917363;28;20126;-69
2023/03/23 04:26:03;;;;;;;3.13;0.95;;;;;;;;;;4939398;28;20591;-67
2023/03/23 04:28:33;;;;;;;4.25;1.20;;;;;;;;;;4938109;28;20390;-68
2023/03/23 04:31:12;;;;;;;4.22;1.10;;;;;;;;;;4938550;28;20118;-68
2023/03/23 04:33:41;;;;;;;8.63;1.83;;;;;;;;;;4931678;28;20500;-69
2023/03/23 04:36:07;;;;;;;9.57;5.15;;;;;;;;;;4937835;28;20391;-68
2023/03/23 04:38:35;;;;;;;;;;;;;;;;;;4937443;28;20478;-68
2023/03/23 04:41:02;;;;;;;21.77;16.73;;;;;;;;;;4939186;28;20050;-68
2023/03/23 04:43:29;;;;;;;19.38;12.50;;;;;;;;;;4933396;28;20129;-68
2023/03/23 04:45:57;;;;;;;14.82;8.88;;;;;;;;;;4918513;28;20030;-67
2023/03/23 04:48:25;;;;;;;9.45;4.05;;;;;;;;;;4922648;28;20038;-67
2023/03/23 04:50:52;;;;;;;9.55;3.17;;;;;;;;;;4937616;28;20503;-67
2023/03/23 04:53:21;;;;;;;7.57;2.72;;;;;;;;;;4939295;28;20279;-67
2023/03/23 04:55:48;;;;;;;7.32;2.65;;;;;;;;;;4936591;28;20670;-68
2023/03/23 04:58:19;;;;;;;7.10;2.38;;;;;;;;;;4939204;28;20102;-70
2023/03/23 05:00:49;;;;;;;8.23;2.30;;;;;;;;;;4922251;28;20059;-69
2023/03/23 05:03:18;;;;;;;8.07;2.20;;;;;;;;;;4916282;28;20033;-69
2023/03/23 05:05:51;;;;;;;5.93;1.63;;;;;;;;;;4916628;28;20705;-69
2023/03/23 05:08:24;;;;;;;9.77;2.55;;;;;;;;;;4936743;28;21770;-68
2023/03/23 05:10:56;;;;;;;6.68;1.92;;;;;;;;;;4934342;28;20034;-68
2023/03/23 05:13:23;;;;;;;6.13;1.65;;;;;;;;;;4918829;28;20035;-69
2023/03/23 05:15:51;;;;;;;4.43;1.42;;;;;;;;;;4916831;28;20375;-69
2023/03/23 05:18:20;;;;;;;6.47;1.58;;;;;;;;;;4936514;28;20051;-68
2023/03/23 05:20:48;;;;;;;6.45;1.48;;;;;;;;;;4929656;28;20451;-69
2023/03/23 05:23:16;;;;;;;4.80;1.40;;;;;;;;;;4935119;28;20620;-69
2023/03/23 05:25:44;;;;;;;5.35;1.40;;;;;;;;;;4934373;28;20034;-68
2023/03/23 05:28:12;;;;;;;6.50;1.60;;;;;;;;;;4921355;28;20015;-68
2023/03/23 05:30:40;;;;;;;5.38;1.63;;;;;;;;;;4918439;28;20067;-68
2023/03/23 05:33:09;;;;;;;7.03;1.80;;;;;;;;;;4938803;28;20245;-68
2023/03/23 05:35:36;;;;;;;8.50;2.00;;;;;;;;;;4932296;28;20031;-68
2023/03/23 05:38:03;;;;;;;6.07;1.83;;;;;;;;;;4938000;28;20556;-68
2023/03/23 05:40:29;;;;;;;6.68;1.60;;;;;;;;;;4921093;28;20027;-68
2023/03/23 05:42:58;;;;;;;7.32;1.70;;;;;;;;;;4934716;28;20474;-68
2023/03/23 05:45:26;;;;;;;5.93;1.70;;;;;;;;;;4940851;28;20564;-69
2023/03/23 05:47:56;;;;;;;6.55;1.80;;;;;;;;;;4936836;28;20030;-68
2023/03/23 05:50:23;;;;;;;6.07;1.58;;;;;;;;;;4939933;28;20031;-68
2023/03/23 05:52:52;;;;;;;9.27;2.10;;;;;;;;;;4918908;28;20465;-68
2023/03/23 05:55:19;;;;;;;10.82;2.10;;;;;;;;;;4938286;28;20431;-68
2023/03/23 05:57:47;;;;;;;7.38;2.13;;;;;;;;;;4917287;28;20493;-68
2023/03/23 06:00:25;;;;;;;7.70;2.13;;;;;;;;;;4936961;28;20116;-69
2023/03/23 06:02:56;;;;;;;8.05;2.75;;;;;;;;;;4935550;28;20102;-69
2023/03/23 06:05:26;;;;;;;10.98;2.95;;;;;;;;;;4921565;28;20586;-68
2023/03/23 06:07:53;;;;;;;8.43;2.53;;;;;;;;;;4936036;28;20926;-69
2023/03/23 06:10:22;;;;;;;8.98;2.20;;;;;;;;;;4916722;28;20390;-68
2023/03/23 06:12:51;;;;;;;10.07;2.35;;;;;;;;;;4917675;28;20028;-68
2023/03/23 06:15:21;;;;;;;9.73;1.88;;;;;;;;;;4923822;28;20038;-68
2023/03/23 06:17:50;;;;;;;7.90;1.83;;;;;;;;;;4914919;28;20109;-68
2023/03/23 06:20:20;;;;;;;6.70;1.80;;;;;;;;;;4931192;28;20354;-68
2023/03/23 06:22:47;;;;;;;6.63;1.70;;;;;;;;;;4933430;28;20308;-68
2023/03/23 06:25:16;;;;;;;6.75;1.80;;;;;;;;;;4936232;28;20038;-69
2023/03/23 06:27:45;;;;;;;6.70;1.88;;;;;;;;;;4930232;28;20027;-68
2023/03/23 06:30:14;;;;;;;6.97;1.85;;;;;;;;;;4937397;28;20293;-69
2023/03/23 06:32:45;;;;;;;8.20;2.35;;;;;;;;;;4930084;28;20031;-68
2023/03/23 06:35:16;;;;;;;8.68;2.10;;;;;;;;;;4939293;28;20026;-70
2023/03/23 06:37:45;;;;;;;9.65;2.03;;;;;;;;;;4933071;28;20054;-70
2023/03/23 06:40:12;;;;;;;9.50;2.45;;;;;;;;;;4933533;28;20498;-69
2023/03/23 06:42:42;;;;;;;9.30;2.45;;;;;;;;;;4931315;28;20022;-70
2023/03/23 06:45:10;;;;;;;12.05;2.03;;;;;;;;;;4939996;28;20109;-69
2023/03/23 06:47:36;;;;;;;11.43;2.17;;;;;;;;;;4914671;28;20026;-70
2023/03/23 06:50:04;;;;;;;16.75;2.53;;;;;;;;;;4934389;28;20296;-69
2023/03/23 06:52:33;;;;;;;9.38;2.05;;;;;;;;;;4936321;28;20030;-72
2023/03/23 06:55:00;;;;;;;12.23;2.30;;;;;;;;;;4935121;28;20486;-70
2023/03/23 06:57:29;;;;;;;15.75;2.38;;;;;;;;;;4938350;28;20117;-69
2023/03/23 06:59:57;;;;;;;8.90;2.00;;;;;;;;;;4928385;28;20037;-69
2023/03/23 07:02:26;;;;;;;8.52;2.00;;;;;;;;;;4934317;28;20034;-69
2023/03/23 07:04:54;;;;;;;11.90;2.47;;;;;;;;;;4935426;28;20499;-69
2023/03/23 07:07:22;;;;;;;8.55;2.30;;;;;;;;;;4939503;28;20030;-69
2023/03/23 07:09:49;;;;;;;8.80;2.40;;;;;;;;;;4913565;28;20531;-69
2023/03/23 07:12:16;;;;;;;10.00;2.08;;;;;;;;;;4930501;28;20074;-70
2023/03/23 07:14:45;;;;;;;8.63;2.33;;;;;;;;;;4928189;28;20493;-69
2023/03/23 07:17:13;;;;;;;7.28;1.75;;;;;;;;;;4931707;28;20057;-69
2023/03/23 07:19:41;;;;;;;7.57;1.70;;;;;;;;;;4912992;28;20919;-69
2023/03/23 07:22:08;;;;;;;6.72;1.90;;;;;;;;;;4921058;28;20035;-69
2023/03/23 07:24:37;;;;;;;6.57;1.45;;;;;;;;;;4914841;28;20034;-69
2023/03/23 07:27:05;;;;;;;8.85;2.00;;;;;;;;;;4935449;28;20615;-69
2023/03/23 07:29:34;;;;;;;9.35;1.90;;;;;;;;;;4928195;28;20031;-68
2023/03/23 07:32:02;;;;;;;11.27;1.83;;;;;;;;;;4935601;28;20224;-69
2023/03/23 07:34:28;;;;;;;8.63;1.73;;;;;;;;;;4936520;28;20081;-69
2023/03/23 07:36:56;;;;;;;7.75;1.70;;;;;;;;;;4920313;28;20062;-68
2023/03/23 07:39:24;;;;;;;8.60;1.80;;;;;;;;;;4938770;28;20042;-68
2023/03/23 07:41:52;;;;;;;5.90;1.50;;;;;;;;;;4932784;28;20023;-68
2023/03/23 07:44:19;;;;;;;5.97;1.30;;;;;;;;;;4923074;28;20475;-69
2023/03/23 07:46:45;;;;;;;;;;;;;;;;;;4919928;28;20518;-68
2023/03/23 07:49:14;;;;;;;4.43;1.17;;;;;;;;;;4925007;28;19917;-67
2023/03/23 07:51:42;;;;;;;3.67;1.10;;;;;;;;;;4923461;28;20193;-70
2023/03/23 07:54:11;;;;;;;10.65;1.50;;;;;;;;;;4945163;28;20421;-69
2023/03/23 07:56:41;;;;;;;8.32;1.50;;;;;;;;;;4939760;28;20034;-68
2023/03/23 07:59:11;;;;;;;4.63;1.13;;;;;;;;;;4943395;28;20027;-68
2023/03/23 08:01:38;;;;;;;5.53;1.33;;;;;;;;;;4921376;28;20492;-68
2023/03/23 08:04:07;;;;;;;6.72;1.30;;;;;;;;;;4904170;28;20701;-68
2023/03/23 08:06:36;;;;;;;7.05;1.05;;;;;;;;;;4909191;28;20660;-69
2023/03/23 08:09:07;;;;;;;7.50;1.27;;;;;;;;;;4913685;28;20086;-71
2023/03/23 08:11:35;;;;;;;7.15;1.40;;;;;;;;;;4899929;28;20039;-69
2023/03/23 08:14:03;;;;;;;6.15;1.15;;;;;;;;;;4914342;28;20043;-69
2023/03/23 08:16:31;;;;;;;9.23;1.40;;;;;;;;;;4886233;29;21025;-69
2023/03/23 08:18:58;;;;;;;6.57;1.30;;;;;;;;;;4917588;28;20492;-69
2023/03/23 08:21:27;;;;;;;7.60;1.27;;;;;;;;;;4883136;29;21579;-70
2023/03/23 08:23:55;;;;;;;9.98;1.80;;;;;;;;;;4888867;28;20222;-67
2023/03/23 08:26:27;;;;;;;7.28;1.50;;;;;;;;;;4890528;28;20050;-69
2023/03/23 08:28:54;;;;;;;6.50;1.33;;;;;;;;;;4887326;28;20043;-68
2023/03/23 08:31:21;;;;;;;;;;;;;;;;;;4892575;28;20537;-67
2023/03/23 08:33:48;;;;;;;;;;;;;;;;;;4889019;28;20199;-68
2023/03/23 08:36:16;;;;;;;8.48;1.50;;;;;;;;;;4878722;29;19922;-70
2023/03/23 08:38:44;;;;;;;6.63;1.40;;;;;;;;;;4888953;28;20698;-68
2023/03/23 08:41:11;;;;;;;8.30;1.33;;;;;;;;;;4897842;28;20148;-68
2023/03/23 08:43:39;;;;;;;5.88;1.38;;;;;;;;;;4907799;28;20031;-68
2023/03/23 08:46:09;;;;;;;8.88;1.48;;;;;;;;;;4908776;28;20736;-68
2023/03/23 08:48:38;;;;;;;6.32;1.48;;;;;;;;;;4908458;28;20362;-68
2023/03/23 08:51:10;;;;;;;8.10;1.88;;;;;;;;;;4915082;28;20859;-68
2023/03/23 08:53:37;;;;;;;9.60;1.80;;;;;;;;;;4906405;28;20027;-69
2023/03/23 08:56:13;;;;;;;6.22;1.27;;;;;;;;;;4913405;28;20464;-69
2023/03/23 08:58:51;;;;;;;6.10;1.55;;;;;;;;;;4931423;28;20108;-69
2023/03/23 09:01:18;;;;;;;8.93;1.80;;;;;;;;;;4939726;28;20560;-69
2023/03/23 09:03:46;;;;;;;7.50;1.80;;;;;;;;;;4943608;28;20153;-69
2023/03/23 09:06:13;;;;;;;7.13;1.58;;;;;;;;;;4928101;28;20112;-69
2023/03/23 09:08:41;;;;;;;5.95;1.55;;;;;;;;;;4938495;28;20038;-68
2023/03/23 09:11:11;;;;;;;5.53;1.50;;;;;;;;;;4938779;28;20054;-68
2023/03/23 09:13:40;;;;;;;6.80;1.60;;;;;;;;;;4938727;28;20412;-69
2023/03/23 09:16:08;;;;;;;7.53;1.95;;;;;;;;;;4926010;28;20053;-69
2023/03/23 09:18:37;;;;;;;6.45;1.52;;;;;;;;;;4923589;28;20038;-69
2023/03/23 09:21:06;;;;;;;7.45;2.00;;;;;;;;;;4939712;28;20502;-70
2023/03/23 09:23:34;;;;;;;11.95;2.28;;;;;;;;;;4922909;28;20492;-69
2023/03/23 09:26:03;;;;;;;7.95;2.17;;;;;;;;;;4939542;28;20060;-69
2023/03/23 09:28:31;;;;;;;7.28;1.83;;;;;;;;;;4938580;28;20023;-69
2023/03/23 09:30:58;;;;;;;7.93;2.10;;;;;;;;;;4939939;28;20031;-69
2023/03/23 09:33:27;;;;;;;8.93;1.80;;;;;;;;;;4939380;28;20912;-69
2023/03/23 09:35:56;;;;;;;11.38;2.75;;;;;;;;;;4937944;28;20038;-69
2023/03/23 09:38:22;;;;;;;10.10;2.65;;;;;;;;;;4939373;28;20122;-69
2023/03/23 09:41:07;;;;;;;9.20;2.88;;;;;;;;;;4937026;28;20026;-68
2023/03/23 09:43:48;;;;;;;8.20;2.70;;;;;;;;;;4925973;28;20273;-69
2023/03/23 09:46:34;;;;;;;8.88;2.70;;;;;;;;;;4919471;28;20050;-69
2023/03/23 09:49:03;;;;;;;7.97;2.45;;;;;;;;;;4936417;28;20038;-69
2023/03/23 09:51:52;;;;;;;7.38;2.42;;;;;;;;;;4926520;28;20161;-70
2023/03/23 09:54:40;;;;;;;7.97;1.85;;;;;;;;;;4925161;28;20228;-69
2023/03/23 09:57:26;;;;;;;7.47;1.67;;;;;;;;;;4908864;28;20148;-71
2023/03/23 10:00:15;;;;;;;11.07;1.95;;;;;;;;;;4937568;28;21161;-70
2023/03/23 10:02:49;;;;;;;7.13;1.58;;;;;;;;;;4921961;28;20145;-70
2023/03/23 10:05:36;;;;;;;7.13;1.73;;;;;;;;;;4939317;28;20122;-69
2023/03/23 10:08:07;;;;;;;8.27;2.05;;;;;;;;;;4940326;28;20613;-70
2023/03/23 10:10:45;;;;;;;7.70;2.10;;;;;;;;;;4923000;28;20103;-69
2023/03/23 10:13:21;;;;;;;8.63;2.20;;;;;;;;;;4920792;28;20368;-70
2023/03/23 10:15:50;;;;;;;8.43;1.77;;;;;;;;;;4919523;28;20207;-69
2023/03/23 10:18:35;;;;;;;8.00;1.90;;;;;;;;;;4940689;28;20137;-69
2023/03/23 10:21:03;;;;;;;8.13;1.90;;;;;;;;;;4921408;28;20035;-70
2023/03/23 10:23:49;;;;;;;7.50;1.80;;;;;;;;;;4922112;28;20457;-69
2023/03/23 10:26:29;;;;;;;6.22;1.80;;;;;;;;;;4941729;28;20036;-70
2023/03/23 10:28:58;;;;;;;5.70;1.55;;;;;;;;;;4936242;28;20587;-71
2023/03/23 10:31:29;;;;;;;8.32;1.67;;;;;;;;;;4941670;28;20039;-70
2023/03/23 10:33:59;;;;;;;9.15;1.55;;;;;;;;;;4938037;28;20037;-70
2023/03/23 10:36:37;;;;;;;6.93;1.52;;;;;;;;;;4931227;28;20043;-70
2023/03/23 10:39:16;;;;;;;5.90;1.60;;;;;;;;;;4924367;28;20472;-70
2023/03/23 10:41:42;;;;;;;8.25;1.73;;;;;;;;;;4916820;28;20034;-69
2023/03/23 10:44:17;;;;;;;6.50;1.90;;;;;;;;;;4914303;28;20050;-70
2023/03/23 10:47:04;;;;;;;10.53;3.47;;;;;;;;;;4913132;28;20243;-70
2023/03/23 10:49:33;;;;;;;7.93;1.77;;;;;;;;;;4911122;28;20945;-70
2023/03/23 10:52:19;;;;;;;6.90;1.50;;;;;;;;;;4916355;28;20043;-70
2023/03/23 10:55:05;;;;;;;5.25;1.38;;;;;;;;;;4910559;28;20052;-70
2023/03/23 10:57:35;;;;;;;10.13;2.38;;;;;;;;;;4913950;28;20077;-70
2023/03/23 11:00:19;;;;;;;9.45;2.60;;;;;;;;;;4900912;28;20720;-70
2023/03/23 11:02:47;;;;;;;6.07;1.55;;;;;;;;;;4909469;28;20499;-70
2023/03/23 11:05:28;;;;;;;6.35;1.70;;;;;;;;;;4902062;29;20490;-71
2023/03/23 11:07:57;;;;;;;4.90;1.20;;;;;;;;;;4914478;28;20034;-70
2023/03/23 11:10:28;;;;;;;4.85;1.30;;;;;;;;;;4915499;28;20539;-70
2023/03/23 11:13:01;;;;;;;4.60;1.00;;;;;;;;;;4917653;28;20492;-70
2023/03/23 11:15:37;;;;;;;4.65;0.90;;;;;;;;;;4918026;28;20153;-70
2023/03/23 11:18:07;;;;;;;6.57;1.50;;;;;;;;;;4918045;28;20050;-70
2023/03/23 11:20:43;;;;;;;7.43;1.65;;;;;;;;;;4899041;28;20433;-70
2023/03/23 11:23:30;;;;;;;4.45;1.10;;;;;;;;;;4913930;28;20038;-70
2023/03/23 11:26:16;;;;;;;8.05;1.48;;;;;;;;;;4914352;28;20226;-69
2023/03/23 11:28:49;;;;;;;4.70;1.15;;;;;;;;;;4915466;28;20031;-69
2023/03/23 11:31:17;;;;;;;6.45;1.48;;;;;;;;;;4919029;28;20524;-70
2023/03/23 11:34:01;;;;;;;5.10;1.10;;;;;;;;;;4921476;28;20043;-70
2023/03/23 11:36:37;;;;;;;6.25;1.40;;;;;;;;;;4943903;28;20035;-70
2023/03/23 11:39:25;;;;;;;5.55;1.42;;;;;;;;;;4939251;28;20039;-70
2023/03/23 11:41:57;;;;;;;7.10;1.10;;;;;;;;;;4869146;29;20057;-70
2023/03/23 11:44:26;;;;;;;5.82;1.10;;;;;;;;;;4834052;29;20106;-70
2023/03/23 11:47:08;;;;;;;4.97;1.10;;;;;;;;;;4863434;29;20048;-70
2023/03/23 11:49:37;;;;;;;5.35;1.63;;;;;;;;;;4870720;29;20040;-70
2023/03/23 11:52:26;;;;;;;3.85;1.10;;;;;;;;;;4873553;29;20040;-70
2023/03/23 11:55:02;;;;;;;6.55;1.92;;;;;;;;;;4823794;29;20136;-70
2023/03/23 11:57:30;;;;;;;;;;;;;;;;;;4831573;29;20432;-70
2023/03/23 12:00:04;;;;;;;5.55;1.40;;;;;;;;;;4828634;29;19916;-70
2023/03/23 12:02:51;;;;;;;5.72;1.20;;;;;;;;;;4826399;29;20050;-70
2023/03/23 12:05:41;;;;;;;5.97;1.05;;;;;;;;;;4819663;29;20073;-70
2023/03/23 12:08:35;;;;;;;5.30;1.10;;;;;;;;;;4819397;29;20072;-69
2023/03/23 12:11:16;;;;;;;5.70;1.33;;;;;;;;;;4815502;29;20622;-70
2023/03/23 12:14:02;;;;;;;6.68;1.10;;;;;;;;;;4821175;29;20142;-70
2023/03/23 12:16:47;;;;;;;5.13;1.15;;;;;;;;;;4816755;29;20140;-70
2023/03/23 12:19:20;;;;;;;10.07;1.17;;;;;;;;;;4850124;29;20090;-70
2023/03/23 12:22:03;;;;;;;5.43;0.93;;;;;;;;;;4875176;29;20036;-70
2023/03/23 12:24:47;;;;;;;8.65;1.70;;;;;;;;;;4879152;29;20127;-70
2023/03/23 12:27:34;;;;;;;5.97;1.40;;;;;;;;;;4875574;29;20131;-70
2023/03/23 12:30:27;;;;;;;6.35;1.60;;;;;;;;;;4879117;29;20036;-68
2023/03/23 12:32:55;;;;;;;8.52;1.92;;;;;;;;;;4823124;29;20048;-68
2023/03/23 12:35:25;;;;;;;6.18;1.80;;;;;;;;;;4831337;29;20563;-69
2023/03/23 12:38:00;;;;;;;8.75;1.60;;;;;;;;;;4827353;29;22122;-69
2023/03/23 12:40:45;;;;;;;10.43;2.00;;;;;;;;;;4829053;29;20069;-68
2023/03/23 12:43:32;;;;;;;7.95;2.28;;;;;;;;;;4830324;29;20042;-68
2023/03/23 12:46:10;;;;;;;6.65;1.65;;;;;;;;;;4832615;29;20053;-70
2023/03/23 12:49:00;;;;;;;11.48;1.85;;;;;;;;;;4826815;29;20585;-69
2023/03/23 12:51:46;;;;;;;6.53;1.65;;;;;;;;;;4822002;29;20465;-68
2023/03/23 12:54:26;;;;;;;8.77;2.03;;;;;;;;;;4832808;29;20257;-69
2023/03/23 12:57:09;;;;;;;7.65;1.85;;;;;;;;;;4833623;29;20488;-69
2023/03/23 12:59:53;;;;;;;8.52;2.08;;;;;;;;;;4825031;29;20037;-68
2023/03/23 13:02:34;;;;;;;8.45;1.80;;;;;;;;;;4835495;29;20029;-70
2023/03/23 13:05:27;;;;;;;7.85;1.90;;;;;;;;;;4846670;29;20049;-70
2023/03/23 13:08:12;;;;;;;8.50;1.80;;;;;;;;;;4830372;29;20643;-70
2023/03/23 13:10:48;;;;;;;6.47;1.75;;;;;;;;;;4922950;28;20106;-71
2023/03/23 13:13:22;;;;;;;5.80;1.50;;;;;;;;;;4926597;28;20706;-68
2023/03/23 13:15:57;;;;;;;7.82;1.70;;;;;;;;;;4927021;28;20054;-68
2023/03/23 13:18:48;;;;;;;9.20;1.92;;;;;;;;;;4940698;28;20046;-69
2023/03/23 13:21:27;;;;;;;6.45;1.50;;;;;;;;;;4938577;28;20043;-70
2023/03/23 13:23:58;;;;;;;5.28;1.35;;;;;;;;;;4939312;28;20031;-70
2023/03/23 13:26:25;;;;;;;6.75;1.52;;;;;;;;;;4924829;28;20731;-69
2023/03/23 13:28:58;;;;;;;5.60;1.20;;;;;;;;;;4935694;28;20069;-70
2023/03/23 13:31:36;;;;;;;7.25;1.27;;;;;;;;;;4923660;28;20498;-69
2023/03/23 13:34:20;;;;;;;4.43;1.38;;;;;;;;;;4922876;28;20065;-70
2023/03/23 13:37:02;;;;;;;5.97;1.30;;;;;;;;;;4935983;28;20206;-70
2023/03/23 13:39:48;;;;;;;8.20;1.50;;;;;;;;;;4939387;28;20323;-71
2023/03/23 13:42:20;;;;;;;7.88;1.30;;;;;;;;;;4934517;28;20043;-71
2023/03/23 13:44:53;;;;;;;5.43;1.75;;;;;;;;;;4934368;28;20205;-71
2023/03/23 13:47:28;;;;;;;7.75;1.85;;;;;;;;;;4921981;28;20039;-70
2023/03/23 13:50:01;;;;;;;6.47;1.60;;;;;;;;;;4928366;28;20035;-70
2023/03/23 13:52:46;;;;;;;9.60;1.88;;;;;;;;;;4935009;28;20541;-70
2023/03/23 13:55:32;;;;;;;6.97;1.15;;;;;;;;;;4942093;28;20042;-70
2023/03/23 13:58:08;;;;;;;6.45;1.30;;;;;;;;;;4942392;28;20035;-69
2023/03/23 14:00:59;;;;;;;5.68;1.27;;;;;;;;;;4937101;28;20042;-72
2023/03/23 14:03:37;;;;;;;5.78;1.30;;;;;;;;;;4934042;28;20409;-70
2023/03/23 14:06:12;;;;;;;4.32;1.08;;;;;;;;;;4926346;28;20026;-70
2023/03/23 14:08:42;;;;;;;4.88;1.25;;;;;;;;;;4936835;28;20041;-70
2023/03/23 14:11:26;;;;;;;6.35;1.50;;;;;;;;;;4936010;28;20094;-71
2023/03/23 14:14:06;;;;;;;4.22;0.98;;;;;;;;;;4916295;28;21108;-70
2023/03/23 14:16:38;;;;;;;3.92;0.90;;;;;;;;;;4935872;28;20062;-70
2023/03/23 14:19:14;;;;;;;13.63;1.90;;;;;;;;;;4940326;28;20050;-70
2023/03/23 14:21:50;;;;;;;5.40;1.20;;;;;;;;;;4921917;28;20039;-70
2023/03/23 14:24:23;;;;;;;5.63;1.08;;;;;;;;;;4924968;28;20038;-70
2023/03/23 14:26:52;;;;;;;4.43;1.23;;;;;;;;;;4923529;28;20031;-71
2023/03/23 14:29:21;;;;;;;4.50;0.93;;;;;;;;;;4937550;28;20023;-70
2023/03/23 14:31:52;;;;;;;6.47;1.15;;;;;;;;;;4923346;28;20039;-70
2023/03/23 14:34:21;;;;;;;5.22;1.10;;;;;;;;;;4942493;28;20054;-70
2023/03/23 14:36:50;;;;;;;5.43;1.20;;;;;;;;;;4919268;28;20560;-70
2023/03/23 14:39:32;;;;;;;5.20;1.10;;;;;;;;;;4940762;28;20867;-70
2023/03/23 14:42:08;;;;;;;6.32;1.30;;;;;;;;;;4925722;28;20222;-72
2023/03/23 14:44:40;;;;;;;5.05;1.15;;;;;;;;;;4935012;28;20108;-70
2023/03/23 14:47:11;;;;;;;6.50;0.90;;;;;;;;;;4939212;28;20651;-70
2023/03/23 14:49:38;;;;;;;5.20;1.23;;;;;;;;;;4923782;28;20272;-71
2023/03/23 14:52:12;;;;;;;6.38;1.10;;;;;;;;;;4908081;28;20168;-70
2023/03/23 14:54:44;;;;;;;5.00;1.17;;;;;;;;;;4938687;28;20378;-70
2023/03/23 14:57:37;;;;;;;7.03;1.40;;;;;;;;;;4938701;28;20031;-70
2023/03/23 15:00:05;;;;;;;10.00;1.17;;;;;;;;;;4881651;29;20131;-71
2023/03/23 15:02:38;;;;;;;7.20;1.70;;;;;;;;;;4886780;29;20122;-70
2023/03/23 15:05:20;;;;;;;6.47;1.77;;;;;;;;;;4881232;29;20640;-71
2023/03/23 15:07:50;;;;;;;7.70;1.40;;;;;;;;;;4865887;29;20314;-71
2023/03/23 15:10:21;;;;;;;6.18;1.50;;;;;;;;;;4882686;29;20489;-71
2023/03/23 15:12:51;;;;;;;4.50;1.17;;;;;;;;;;4879260;29;20063;-71
2023/03/23 15:15:34;;;;;;;5.13;1.10;;;;;;;;;;4867689;29;20044;-71